Time;durP1;ratioP1;P1;durP2;ratioP2;P2;SDS_P1;SDS_P2;PMS_P1;PMS_P2;Temp;Humidity;BMP_temperature;BMP_pressure;BME280_temperature;BME280_humidity;BME280_pressure;Samples;Min_cycle;Max_cycle;Signal;HPM_P1;HPM_P2
2021/04/17 00:00:52;;;;;;;7.57;6.63;;;11.20;47.50;;;;;;5030303;28;20649;-44
2021/04/17 00:03:17;;;;;;;9.67;8.67;;;11.10;47.50;;;;;;5029396;28;20232;-48
2021/04/17 00:05:43;;;;;;;9.40;8.17;;;11.10;47.60;;;;;;5033419;28;20193;-46
2021/04/17 00:08:09;;;;;;;9.00;8.10;;;11.10;47.60;;;;;;5033998;28;20201;-44
2021/04/17 00:10:34;;;;;;;8.70;7.80;;;11.10;47.50;;;;;;5030842;28;20208;-45
2021/04/17 00:13:00;;;;;;;8.60;7.67;;;11.10;47.30;;;;;;5033762;28;20197;-45
2021/04/17 00:15:26;;;;;;;8.53;7.23;;;11.20;47.40;;;;;;5025338;28;20228;-44
2021/04/17 00:17:51;;;;;;;7.13;6.40;;;11.20;47.50;;;;;;5027751;28;20276;-48
2021/04/17 00:20:17;;;;;;;7.53;6.83;;;11.10;47.70;;;;;;5015752;28;20198;-49
2021/04/17 00:22:43;;;;;;;9.93;7.50;;;11.10;47.80;;;;;;5018101;28;20193;-44
2021/04/17 00:25:09;;;;;;;9.07;8.13;;;11.10;47.90;;;;;;5030250;28;20198;-45
2021/04/17 00:27:34;;;;;;;9.97;7.23;;;11.10;48.00;;;;;;5026762;28;20204;-44
2021/04/17 00:30:00;;;;;;;8.43;7.43;;;11.10;48.10;;;;;;5025433;28;20440;-48
2021/04/17 00:32:26;;;;;;;8.80;7.93;;;11.10;48.10;;;;;;5032107;28;20822;-47
2021/04/17 00:34:52;;;;;;;9.43;7.27;;;11.10;48.00;;;;;;5032619;28;20432;-45
2021/04/17 00:37:17;;;;;;;11.07;8.77;;;11.10;47.80;;;;;;5028412;28;20759;-44
2021/04/17 00:39:43;;;;;;;8.60;7.70;;;11.10;47.80;;;;;;5026670;28;20211;-48
2021/04/17 00:42:08;;;;;;;9.30;7.17;;;11.10;47.80;;;;;;5029812;28;20216;-47
2021/04/17 00:44:35;;;;;;;8.83;7.93;;;11.10;47.60;;;;;;5024667;28;20239;-44
2021/04/17 00:47:03;;;;;;;8.40;7.60;;;11.10;47.70;;;;;;5029727;28;20236;-48
2021/04/17 00:49:30;;;;;;;8.93;7.73;;;11.10;47.90;;;;;;5027378;28;20456;-47
2021/04/17 00:51:55;;;;;;;7.73;6.97;;;11.00;48.20;;;;;;5029190;28;20467;-47
2021/04/17 00:54:21;;;;;;;7.67;6.87;;;10.90;48.60;;;;;;5024533;28;20483;-45
2021/04/17 00:56:47;;;;;;;8.53;7.63;;;11.10;48.70;;;;;;5020383;28;20693;-46
2021/04/17 00:59:12;;;;;;;7.13;6.43;;;11.00;48.50;;;;;;5022989;28;20198;-45
2021/04/17 01:01:38;;;;;;;7.43;6.70;;;11.00;48.40;;;;;;5022527;28;20193;-45
2021/04/17 01:04:14;;;;;;;8.07;6.37;;;11.00;48.50;;;;;;5023188;28;20277;-47
2021/04/17 01:07:02;;;;;;;10.20;7.67;;;11.00;48.50;;;;;;5018232;28;20478;-46
2021/04/17 01:09:58;;;;;;;7.80;7.10;;;11.00;48.40;;;;;;5018971;28;20441;-49
2021/04/17 01:12:29;;;;;;;9.90;6.57;;;11.00;48.40;;;;;;5028655;28;20444;-44
2021/04/17 01:14:55;;;;;;;7.40;6.70;;;10.90;48.40;;;;;;5031054;28;20425;-48
2021/04/17 01:17:21;;;;;;;7.63;6.63;;;10.90;48.50;;;;;;5023232;28;20489;-48
2021/04/17 01:19:47;;;;;;;9.50;7.97;;;10.90;48.40;;;;;;5011375;28;22402;-44
2021/04/17 01:22:17;;;;;;;9.50;7.13;;;10.90;48.00;;;;;;5028896;28;20442;-46
2021/04/17 01:24:52;;;;;;;9.77;7.90;;;10.90;48.10;;;;;;5025445;28;20205;-47
2021/04/17 01:27:17;;;;;;;9.10;8.20;;;10.90;48.10;;;;;;5015723;28;20808;-44
2021/04/17 01:29:44;;;;;;;13.33;9.70;;;10.90;48.10;;;;;;5026149;28;20432;-43
2021/04/17 01:32:12;;;;;;;9.47;8.23;;;10.90;48.10;;;;;;5026581;28;20606;-45
2021/04/17 01:34:41;;;;;;;9.40;7.03;;;10.90;48.00;;;;;;5020501;28;20476;-45
2021/04/17 01:37:09;;;;;;;8.37;7.47;;;10.90;47.90;;;;;;5028983;28;21013;-44
2021/04/17 01:39:36;;;;;;;8.90;7.10;;;10.80;47.80;;;;;;5023330;28;20474;-43
2021/04/17 01:42:06;;;;;;;9.67;8.00;;;10.70;47.90;;;;;;5026362;28;20531;-44
2021/04/17 01:44:34;;;;;;;8.07;7.27;;;10.70;48.00;;;;;;5018761;28;20871;-44
2021/04/17 01:47:03;;;;;;;8.27;7.47;;;10.70;48.00;;;;;;5029173;28;20486;-44
2021/04/17 01:49:32;;;;;;;8.63;7.33;;;10.70;48.20;;;;;;5021471;28;20928;-44
2021/04/17 01:51:59;;;;;;;9.60;7.70;;;10.60;48.80;;;;;;5026285;28;20429;-46
2021/04/17 01:54:28;;;;;;;7.93;6.60;;;10.60;48.50;;;;;;5020034;28;20432;-47
2021/04/17 01:56:59;;;;;;;8.07;7.27;;;10.60;48.70;;;;;;5027277;28;20483;-45
2021/04/17 01:59:27;;;;;;;9.67;7.73;;;10.50;48.70;;;;;;5029153;28;20450;-45
2021/04/17 02:01:53;;;;;;;10.03;7.67;;;10.50;49.00;;;;;;5027848;28;20463;-47
2021/04/17 02:04:19;;;;;;;8.70;7.80;;;10.50;49.00;;;;;;5023401;28;20606;-47
2021/04/17 02:06:45;;;;;;;8.30;7.50;;;10.40;49.00;;;;;;5018622;28;20260;-48
2021/04/17 02:09:10;;;;;;;9.57;6.93;;;10.40;49.10;;;;;;5022059;28;20194;-47
2021/04/17 02:11:36;;;;;;;8.63;7.77;;;10.50;49.10;;;;;;5023402;28;20653;-48
2021/04/17 02:14:04;;;;;;;11.50;7.43;;;10.40;48.90;;;;;;5027643;28;20559;-46
2021/04/17 02:16:43;;;;;;;7.53;6.80;;;10.40;49.00;;;;;;5025188;28;20229;-45
2021/04/17 02:19:18;;;;;;;9.47;8.00;;;10.40;49.10;;;;;;4996436;28;20992;-48
2021/04/17 02:21:46;;;;;;;9.37;7.60;;;10.40;49.10;;;;;;5027961;28;20469;-46
2021/04/17 02:24:12;;;;;;;7.97;6.97;;;10.30;49.00;;;;;;5021404;28;20546;-43
2021/04/17 02:26:38;;;;;;;9.83;7.30;;;10.30;49.20;;;;;;5029453;28;20464;-46
2021/04/17 02:29:05;;;;;;;10.73;7.80;;;10.30;49.10;;;;;;5031599;28;20439;-44
2021/04/17 02:31:30;;;;;;;11.50;9.13;;;10.00;49.60;;;;;;5023550;28;20433;-48
2021/04/17 02:33:56;;;;;;;8.20;7.40;;;10.10;49.90;;;;;;5023685;28;20456;-44
2021/04/17 02:36:22;;;;;;;11.33;7.67;;;10.10;49.70;;;;;;5018458;28;20222;-45
2021/04/17 02:38:48;;;;;;;10.47;8.00;;;10.20;49.40;;;;;;5020464;28;20856;-45
2021/04/17 02:41:14;;;;;;;10.00;7.77;;;10.30;49.30;;;;;;5025014;28;20197;-49
2021/04/17 02:43:41;;;;;;;10.40;8.43;;;10.20;49.40;;;;;;5029407;28;20496;-44
2021/04/17 02:46:07;;;;;;;9.10;7.00;;;10.20;49.50;;;;;;5012804;28;20439;-45
2021/04/17 02:48:33;;;;;;;8.70;7.80;;;10.20;49.40;;;;;;5026567;28;20432;-47
2021/04/17 02:50:58;;;;;;;8.23;7.37;;;10.20;49.40;;;;;;5022062;28;20524;-43
2021/04/17 02:53:24;;;;;;;9.93;7.73;;;10.30;49.50;;;;;;5020335;28;20193;-44
2021/04/17 02:55:50;;;;;;;10.03;8.50;;;10.30;49.50;;;;;;5024502;28;20217;-45
2021/04/17 02:58:15;;;;;;;11.37;8.47;;;10.30;49.50;;;;;;5024093;28;20185;-44
2021/04/17 03:00:41;;;;;;;9.47;7.67;;;10.30;49.50;;;;;;5025212;28;20217;-48
2021/04/17 03:03:07;;;;;;;8.87;7.23;;;10.30;49.60;;;;;;5023175;28;20211;-44
2021/04/17 03:05:33;;;;;;;11.53;8.43;;;10.30;49.70;;;;;;4996242;28;20444;-48
2021/04/17 03:07:59;;;;;;;11.60;8.90;;;10.20;49.60;;;;;;5029071;28;20223;-46
2021/04/17 03:10:24;;;;;;;8.80;7.80;;;10.20;49.70;;;;;;5020267;28;20925;-45
2021/04/17 03:12:50;;;;;;;9.37;7.83;;;10.10;49.60;;;;;;5026937;28;20189;-44
2021/04/17 03:15:16;;;;;;;9.40;7.33;;;10.10;49.70;;;;;;5030110;28;20645;-44
2021/04/17 03:17:42;;;;;;;9.20;7.77;;;10.10;49.70;;;;;;5015104;28;20344;-48
2021/04/17 03:20:09;;;;;;;12.30;8.90;;;10.10;49.60;;;;;;5022679;28;20504;-44
2021/04/17 03:22:35;;;;;;;10.67;8.77;;;10.10;49.70;;;;;;5023648;28;20288;-46
2021/04/17 03:25:03;;;;;;;9.57;7.73;;;10.10;49.60;;;;;;5026618;28;20448;-46
2021/04/17 03:27:29;;;;;;;11.90;9.13;;;10.00;49.60;;;;;;5026648;28;20451;-45
2021/04/17 03:29:55;;;;;;;10.43;8.60;;;10.00;49.70;;;;;;5024052;28;20479;-47
2021/04/17 03:32:20;;;;;;;10.63;8.67;;;10.00;49.70;;;;;;5009427;28;20629;-44
2021/04/17 03:34:46;;;;;;;10.97;9.03;;;10.00;49.70;;;;;;5017033;28;20194;-43
2021/04/17 03:37:11;;;;;;;10.93;8.83;;;10.10;49.70;;;;;;5023063;28;20328;-44
2021/04/17 03:39:37;;;;;;;9.40;8.33;;;10.10;49.50;;;;;;5023273;28;20650;-44
2021/04/17 03:42:03;;;;;;;9.10;7.60;;;10.10;49.60;;;;;;5015864;28;20202;-45
2021/04/17 03:44:28;;;;;;;11.50;9.00;;;10.00;49.50;;;;;;5021111;28;20201;-44
2021/04/17 03:46:54;;;;;;;11.60;9.10;;;10.00;49.60;;;;;;5028130;28;20555;-45
2021/04/17 03:49:20;;;;;;;9.77;8.73;;;10.00;49.70;;;;;;5018841;28;20200;-44
2021/04/17 03:51:46;;;;;;;10.80;8.90;;;10.10;49.70;;;;;;5015895;28;20190;-45
2021/04/17 03:54:11;;;;;;;11.47;9.03;;;10.00;49.60;;;;;;5028032;28;20193;-45
2021/04/17 03:56:37;;;;;;;9.20;8.00;;;10.10;49.60;;;;;;5022495;28;20796;-44
2021/04/17 03:59:03;;;;;;;9.77;8.77;;;10.10;49.60;;;;;;5028883;28;20201;-45
2021/04/17 04:01:28;;;;;;;13.00;8.50;;;10.10;49.60;;;;;;5017733;28;20194;-47
2021/04/17 04:03:57;;;;;;;10.93;8.63;;;10.10;49.70;;;;;;5026829;28;20204;-47
2021/04/17 04:06:23;;;;;;;9.60;8.70;;;10.10;49.70;;;;;;5026147;28;20193;-44
2021/04/17 04:08:48;;;;;;;15.57;10.10;;;10.10;49.70;;;;;;5023442;28;20436;-48
2021/04/17 04:11:14;;;;;;;33.07;19.07;;;10.10;49.70;;;;;;5023920;28;20429;-44
2021/04/17 04:13:39;;;;;;;38.83;20.77;;;10.10;49.60;;;;;;5028754;28;20228;-45
2021/04/17 04:16:05;;;;;;;31.17;17.70;;;9.90;50.80;;;;;;5025471;28;20225;-46
2021/04/17 04:18:31;;;;;;;24.20;12.60;;;9.80;51.00;;;;;;5029396;28;20271;-44
2021/04/17 04:20:56;;;;;;;21.60;13.07;;;9.90;51.10;;;;;;5033177;28;20277;-46
2021/04/17 04:23:22;;;;;;;15.30;10.57;;;9.90;51.60;;;;;;5027618;28;20260;-44
2021/04/17 04:25:48;;;;;;;11.63;10.27;;;9.90;51.00;;;;;;5026551;28;20255;-44
2021/04/17 04:28:13;;;;;;;10.33;8.97;;;9.90;51.00;;;;;;5031790;28;20288;-44
2021/04/17 04:30:39;;;;;;;12.70;9.17;;;9.70;51.30;;;;;;5020504;28;20194;-45
2021/04/17 04:33:05;;;;;;;12.77;9.43;;;9.80;51.20;;;;;;5025732;28;20189;-47
2021/04/17 04:35:30;;;;;;;10.00;8.33;;;9.80;51.10;;;;;;5014559;28;20189;-44
2021/04/17 04:37:56;;;;;;;12.37;8.73;;;9.80;51.00;;;;;;5026255;28;20451;-45
2021/04/17 04:40:22;;;;;;;11.30;9.60;;;9.80;51.20;;;;;;5014102;28;20197;-45
2021/04/17 04:42:47;;;;;;;10.90;8.83;;;9.80;51.10;;;;;;5025764;28;20200;-45
2021/04/17 04:45:14;;;;;;;14.47;10.13;;;9.90;51.00;;;;;;5028670;28;20278;-49
2021/04/17 04:47:40;;;;;;;12.13;8.43;;;9.90;50.90;;;;;;5023020;28;20274;-45
2021/04/17 04:50:07;;;;;;;11.13;7.97;;;9.90;50.90;;;;;;5028186;28;20450;-47
2021/04/17 04:52:33;;;;;;;9.43;7.40;;;9.90;50.90;;;;;;5027842;28;20534;-44
2021/04/17 04:54:58;;;;;;;9.83;8.80;;;9.90;51.20;;;;;;5033179;28;20491;-46
2021/04/17 04:57:24;;;;;;;11.17;8.60;;;9.80;51.30;;;;;;5027054;28;20355;-47
2021/04/17 04:59:50;;;;;;;10.77;9.10;;;9.70;51.30;;;;;;5025020;28;20268;-44
2021/04/17 05:02:15;;;;;;;12.13;8.53;;;9.50;51.90;;;;;;5022633;28;20649;-44
2021/04/17 05:04:42;;;;;;;11.57;8.67;;;9.50;52.10;;;;;;5028841;28;20197;-44
2021/04/17 05:07:08;;;;;;;9.50;8.30;;;9.30;52.30;;;;;;5018456;28;20205;-48
2021/04/17 05:09:33;;;;;;;14.00;9.50;;;9.30;52.80;;;;;;5017017;28;20445;-47
2021/04/17 05:11:59;;;;;;;11.57;9.03;;;9.50;52.60;;;;;;5024899;28;20213;-45
2021/04/17 05:14:24;;;;;;;10.23;8.70;;;9.50;52.40;;;;;;5020119;28;20645;-44
2021/04/17 05:16:50;;;;;;;12.30;9.30;;;9.70;52.00;;;;;;5021993;28;20583;-43
2021/04/17 05:19:16;;;;;;;11.50;10.20;;;9.70;51.80;;;;;;5030397;28;20247;-46
2021/04/17 05:21:41;;;;;;;12.47;11.10;;;9.80;51.80;;;;;;5030337;28;20266;-48
2021/04/17 05:24:07;;;;;;;15.43;12.67;;;9.80;51.70;;;;;;5029564;28;20209;-44
2021/04/17 05:26:33;;;;;;;14.03;12.47;;;9.80;51.70;;;;;;5020844;28;20546;-45
2021/04/17 05:29:00;;;;;;;14.10;11.27;;;9.90;51.70;;;;;;5025343;28;20444;-47
2021/04/17 05:31:26;;;;;;;12.40;10.00;;;9.90;51.60;;;;;;5027638;28;20865;-43
2021/04/17 05:33:53;;;;;;;11.73;10.20;;;10.00;51.30;;;;;;5029672;28;20974;-43
2021/04/17 05:36:19;;;;;;;11.47;9.97;;;10.30;51.70;;;;;;5027932;28;20486;-42
2021/04/17 05:38:45;;;;;;;12.50;9.47;;;10.60;51.40;;;;;;5020531;28;20441;-44
2021/04/17 05:41:10;;;;;;;11.03;9.53;;;10.80;50.80;;;;;;5027311;28;20582;-43
2021/04/17 05:43:36;;;;;;;11.23;9.33;;;11.10;50.20;;;;;;5022499;28;20670;-45
2021/04/17 05:46:02;;;;;;;13.30;9.47;;;11.30;49.50;;;;;;5021763;28;20544;-44
2021/04/17 05:48:28;;;;;;;11.37;8.80;;;11.50;48.90;;;;;;5023524;28;20194;-45
2021/04/17 05:50:54;;;;;;;12.40;9.93;;;11.70;48.50;;;;;;5027801;28;20432;-46
2021/04/17 05:53:19;;;;;;;10.80;9.40;;;12.00;48.00;;;;;;5023582;28;20263;-47
2021/04/17 05:55:45;;;;;;;13.87;9.80;;;12.00;47.10;;;;;;5023447;28;20291;-43
2021/04/17 05:58:11;;;;;;;9.80;8.17;;;12.10;47.00;;;;;;5028901;28;20201;-43
2021/04/17 06:00:36;;;;;;;9.93;8.77;;;12.10;46.70;;;;;;5004037;28;20229;-43
2021/04/17 06:03:04;;;;;;;9.83;8.20;;;12.10;46.60;;;;;;5015067;28;20193;-43
2021/04/17 06:05:30;;;;;;;13.87;9.10;;;12.20;46.60;;;;;;5021436;28;20202;-43
2021/04/17 06:07:55;;;;;;;11.13;9.93;;;12.20;46.40;;;;;;5019138;28;20444;-44
2021/04/17 06:10:21;;;;;;;9.07;8.17;;;12.30;46.30;;;;;;5023296;28;20432;-44
2021/04/17 06:12:46;;;;;;;10.87;8.40;;;12.30;46.30;;;;;;5019395;28;20269;-44
2021/04/17 06:15:13;;;;;;;13.33;9.30;;;12.40;46.30;;;;;;5026293;28;20202;-47
2021/04/17 06:17:39;;;;;;;10.33;9.33;;;12.50;45.80;;;;;;5019209;28;20241;-42
2021/04/17 06:20:05;;;;;;;10.90;9.37;;;12.50;45.80;;;;;;5025129;28;20498;-43
2021/04/17 06:22:31;;;;;;;11.43;10.23;;;12.60;45.80;;;;;;5024791;28;20193;-42
2021/04/17 06:24:57;;;;;;;12.20;10.30;;;12.60;45.60;;;;;;5017883;28;20802;-43
2021/04/17 06:27:22;;;;;;;10.13;9.07;;;12.60;45.50;;;;;;5017209;28;20194;-45
2021/04/17 06:29:48;;;;;;;10.70;8.57;;;12.60;45.70;;;;;;5029669;28;20703;-44
2021/04/17 06:32:13;;;;;;;11.60;10.37;;;12.50;46.00;;;;;;5020470;28;20221;-44
2021/04/17 06:34:39;;;;;;;11.87;10.67;;;12.50;46.00;;;;;;5025032;28;20201;-44
2021/04/17 06:37:05;;;;;;;14.20;9.77;;;12.60;46.00;;;;;;5026981;28;20598;-44
2021/04/17 06:39:30;;;;;;;15.17;10.20;;;12.60;45.80;;;;;;5031353;28;20205;-43
2021/04/17 06:41:58;;;;;;;11.50;10.30;;;12.60;45.70;;;;;;5021261;28;20690;-42
2021/04/17 06:44:23;;;;;;;13.10;10.20;;;12.60;45.60;;;;;;5027669;28;20238;-42
2021/04/17 06:46:50;;;;;;;12.30;10.57;;;12.70;45.70;;;;;;5017181;28;21799;-43
2021/04/17 06:49:17;;;;;;;10.40;8.93;;;12.80;45.70;;;;;;5021272;28;20202;-46
2021/04/17 06:51:46;;;;;;;11.13;10.00;;;12.80;45.60;;;;;;5020861;28;20836;-42
2021/04/17 06:54:16;;;;;;;12.20;10.90;;;12.90;45.80;;;;;;5022996;28;20453;-42
2021/04/17 06:56:42;;;;;;;12.00;10.30;;;13.00;45.60;;;;;;5024027;28;20487;-43
2021/04/17 06:59:09;;;;;;;14.80;8.97;;;13.00;45.50;;;;;;5019610;28;20447;-42
2021/04/17 07:01:38;;;;;;;12.60;10.47;;;13.10;46.00;;;;;;5023546;28;20702;-42
2021/04/17 07:04:05;;;;;;;12.80;10.80;;;13.20;46.00;;;;;;5011317;28;20992;-43
2021/04/17 07:06:30;;;;;;;11.50;10.30;;;13.20;45.50;;;;;;5021969;28;20458;-43
2021/04/17 07:08:56;;;;;;;12.43;10.97;;;13.20;45.40;;;;;;5028123;28;20440;-42
2021/04/17 07:11:22;;;;;;;14.13;12.10;;;13.30;45.40;;;;;;5012972;28;20205;-43
2021/04/17 07:14:06;;;;;;;11.83;10.63;;;13.20;45.30;;;;;;5022882;28;20192;-45
2021/04/17 07:16:32;;;;;;;12.33;11.03;;;13.30;45.30;;;;;;5016775;28;20231;-43
2021/04/17 07:18:58;;;;;;;13.03;11.73;;;13.30;45.20;;;;;;5018123;28;20484;-43
2021/04/17 07:21:26;;;;;;;13.87;12.23;;;13.50;45.40;;;;;;5023397;28;20204;-43
2021/04/17 07:23:53;;;;;;;12.40;10.10;;;13.60;44.60;;;;;;5030857;28;20196;-46
2021/04/17 07:26:24;;;;;;;12.43;10.70;;;13.60;44.20;;;;;;5027155;28;20432;-43
2021/04/17 07:29:14;;;;;;;13.67;12.27;;;13.70;44.30;;;;;;5030643;28;20898;-45
2021/04/17 07:31:55;;;;;;;11.70;10.40;;;13.90;44.20;;;;;;5028969;28;20444;-42
2021/04/17 07:34:24;;;;;;;11.67;10.30;;;13.90;43.50;;;;;;5031061;28;20435;-44
2021/04/17 07:36:58;;;;;;;14.57;12.40;;;14.00;44.10;;;;;;5034623;28;20854;-43
2021/04/17 07:39:31;;;;;;;14.80;12.27;;;14.10;43.70;;;;;;5016919;28;20472;-43
2021/04/17 07:42:07;;;;;;;12.00;10.87;;;14.30;43.20;;;;;;5027328;28;20440;-46
2021/04/17 07:44:38;;;;;;;14.47;11.87;;;14.50;43.00;;;;;;5034532;28;20431;-45
2021/04/17 07:47:05;;;;;;;14.57;13.00;;;14.60;42.60;;;;;;5028197;28;20444;-44
2021/04/17 07:49:31;;;;;;;12.73;10.93;;;14.60;42.30;;;;;;5034760;28;20427;-45
2021/04/17 07:52:09;;;;;;;12.13;10.93;;;14.70;41.90;;;;;;5029639;28;20943;-43
2021/04/17 07:54:35;;;;;;;12.47;10.80;;;14.70;41.80;;;;;;5034281;28;20668;-42
2021/04/17 07:57:19;;;;;;;12.00;10.70;;;14.70;41.70;;;;;;5032782;28;20490;-43
2021/04/17 07:59:47;;;;;;;11.00;9.90;;;14.80;41.70;;;;;;5031993;28;20955;-44
2021/04/17 08:02:14;;;;;;;10.47;9.47;;;14.90;41.50;;;;;;5033299;28;20436;-42
2021/04/17 08:04:42;;;;;;;12.37;10.50;;;14.80;41.30;;;;;;5034021;28;20471;-43
2021/04/17 08:07:08;;;;;;;12.93;10.80;;;14.90;41.30;;;;;;5032130;28;20436;-47
2021/04/17 08:09:36;;;;;;;14.97;12.57;;;14.90;41.20;;;;;;5032705;28;20577;-42
2021/04/17 08:12:02;;;;;;;14.00;12.50;;;14.80;41.10;;;;;;5032443;28;20436;-42
2021/04/17 08:14:29;;;;;;;13.73;11.30;;;14.90;41.40;;;;;;5022060;28;20436;-43
2021/04/17 08:16:56;;;;;;;16.13;11.40;;;14.70;41.30;;;;;;5030946;28;20234;-43
2021/04/17 08:19:22;;;;;;;11.60;10.43;;;14.70;41.20;;;;;;5031093;28;20475;-43
2021/04/17 08:21:50;;;;;;;11.80;10.70;;;14.70;41.20;;;;;;5031921;28;20482;-44
2021/04/17 08:24:27;;;;;;;13.37;11.07;;;14.60;41.20;;;;;;5026929;28;20448;-44
2021/04/17 08:26:57;;;;;;;11.80;9.63;;;14.60;41.30;;;;;;5026454;28;20438;-42
2021/04/17 08:29:41;;;;;;;12.17;10.40;;;14.70;41.20;;;;;;5022746;28;20429;-45
2021/04/17 08:32:20;;;;;;;11.57;10.37;;;14.70;41.20;;;;;;5019742;28;20440;-43
2021/04/17 08:35:08;;;;;;;13.40;11.37;;;14.70;41.20;;;;;;5008358;28;20997;-42
2021/04/17 08:37:55;;;;;;;11.57;8.10;;;14.60;41.50;;;;;;5022374;28;21030;-47
2021/04/17 08:40:39;;;;;;;11.10;10.10;;;14.70;41.30;;;;;;5027864;28;20436;-46
2021/04/17 08:43:26;;;;;;;13.97;11.37;;;14.80;41.50;;;;;;5028139;28;20451;-47
2021/04/17 08:45:59;;;;;;;11.47;10.33;;;14.80;40.80;;;;;;5022889;28;20436;-43
2021/04/17 08:48:49;;;;;;;13.00;10.00;;;14.80;41.00;;;;;;5019042;28;20440;-44
2021/04/17 08:51:32;;;;;;;13.07;9.63;;;14.70;41.50;;;;;;5018313;28;20440;-48
2021/04/17 08:54:00;;;;;;;11.17;10.10;;;14.70;41.10;;;;;;5024084;28;20453;-44
2021/04/17 08:56:54;;;;;;;9.90;8.80;;;14.70;41.00;;;;;;5026903;28;20475;-46
2021/04/17 08:59:27;;;;;;;12.43;8.97;;;14.70;41.20;;;;;;5028313;28;20460;-47
2021/04/17 09:01:54;;;;;;;13.20;10.10;;;14.80;41.10;;;;;;5020765;28;20437;-44
2021/04/17 09:04:21;;;;;;;9.80;8.30;;;14.90;41.10;;;;;;5019278;28;20940;-45
2021/04/17 09:06:53;;;;;;;9.90;7.37;;;14.90;41.10;;;;;;5025578;28;20428;-43
2021/04/17 09:09:19;;;;;;;8.83;7.80;;;15.00;40.00;;;;;;5025407;28;20882;-44
2021/04/17 09:12:07;;;;;;;10.50;8.60;;;15.30;39.90;;;;;;5020287;28;20448;-44
2021/04/17 09:14:33;;;;;;;12.07;8.30;;;15.60;39.70;;;;;;5029148;28;20444;-42
2021/04/17 09:17:07;;;;;;;8.70;7.90;;;15.80;39.80;;;;;;5029204;28;20528;-47
2021/04/17 09:19:38;;;;;;;9.17;8.23;;;15.90;39.80;;;;;;5023182;28;20436;-43
2021/04/17 09:22:32;;;;;;;9.13;8.23;;;16.10;38.20;;;;;;5024029;28;20471;-44
2021/04/17 09:24:59;;;;;;;9.63;8.23;;;15.50;39.30;;;;;;5019551;28;20484;-44
2021/04/17 09:27:55;;;;;;;8.40;7.43;;;15.80;40.40;;;;;;5025055;28;20445;-44
2021/04/17 09:30:22;;;;;;;9.77;8.73;;;16.10;38.60;;;;;;5020088;28;20473;-47
2021/04/17 09:32:58;;;;;;;9.00;8.10;;;16.30;38.30;;;;;;5033225;28;20440;-45
2021/04/17 09:35:31;;;;;;;9.80;8.07;;;16.20;37.50;;;;;;5029393;28;20804;-46
2021/04/17 09:38:05;;;;;;;8.07;7.27;;;16.20;37.70;;;;;;5028018;28;20440;-46
2021/04/17 09:40:36;;;;;;;9.10;7.27;;;16.30;37.30;;;;;;5029116;28;20470;-43
2021/04/17 09:43:02;;;;;;;9.03;7.77;;;16.50;36.50;;;;;;5017138;28;20444;-43
2021/04/17 09:45:37;;;;;;;8.50;7.20;;;16.50;36.50;;;;;;5028114;28;20910;-48
2021/04/17 09:48:09;;;;;;;6.73;5.90;;;16.50;36.20;;;;;;5024380;28;20800;-44
2021/04/17 09:50:37;;;;;;;9.63;6.80;;;16.10;35.60;;;;;;5022311;28;20466;-48
2021/04/17 09:53:28;;;;;;;14.07;7.30;;;16.20;35.90;;;;;;5024773;28;20510;-45
2021/04/17 09:55:55;;;;;;;8.47;7.67;;;16.30;35.90;;;;;;5024075;28;20464;-47
2021/04/17 09:58:22;;;;;;;8.07;7.13;;;16.20;35.80;;;;;;5022285;28;20460;-44
2021/04/17 10:00:48;;;;;;;7.27;6.57;;;16.20;36.10;;;;;;5017279;28;20440;-46
2021/04/17 10:03:24;;;;;;;7.33;6.63;;;16.10;36.00;;;;;;5024512;28;20436;-47
2021/04/17 10:05:49;;;;;;;10.13;7.03;;;16.20;36.00;;;;;;5025825;28;20449;-44
2021/04/17 10:08:29;;;;;;;8.67;7.87;;;16.10;35.80;;;;;;5026500;28;20958;-44
2021/04/17 10:10:54;;;;;;;9.47;6.40;;;16.00;36.10;;;;;;5025618;28;20188;-44
2021/04/17 10:13:43;;;;;;;8.57;6.67;;;16.00;36.30;;;;;;5025890;28;20459;-43
2021/04/17 10:16:11;;;;;;;8.10;6.60;;;16.00;36.20;;;;;;5023459;28;20245;-45
2021/04/17 10:18:38;;;;;;;9.80;6.20;;;16.10;36.20;;;;;;5028741;28;20463;-45
2021/04/17 10:21:06;;;;;;;8.17;6.93;;;16.20;36.80;;;;;;5024741;28;20590;-45
2021/04/17 10:23:33;;;;;;;7.67;7.07;;;16.20;36.20;;;;;;5018838;28;20515;-45
2021/04/17 10:26:07;;;;;;;7.83;5.83;;;16.00;36.70;;;;;;5026060;28;20440;-46
2021/04/17 10:28:34;;;;;;;5.13;4.67;;;16.10;36.40;;;;;;5018192;28;20447;-45
2021/04/17 10:31:18;;;;;;;6.10;5.13;;;16.30;36.50;;;;;;5034921;28;21025;-45
2021/04/17 10:33:46;;;;;;;11.00;5.97;;;16.40;35.60;;;;;;5033954;28;20443;-47
2021/04/17 10:36:21;;;;;;;6.70;6.00;;;16.40;36.30;;;;;;5036461;28;20491;-46
2021/04/17 10:38:49;;;;;;;6.73;5.13;;;16.50;35.40;;;;;;5031821;28;20446;-48
2021/04/17 10:41:28;;;;;;;6.83;5.80;;;16.60;34.90;;;;;;5028194;28;20440;-45
2021/04/17 10:44:14;;;;;;;6.53;5.60;;;16.60;34.60;;;;;;5036814;28;20499;-49
2021/04/17 10:46:48;;;;;;;6.63;6.03;;;16.60;34.50;;;;;;5035484;28;20439;-45
2021/04/17 10:49:35;;;;;;;6.13;5.47;;;16.70;34.90;;;;;;5037316;28;20443;-47
2021/04/17 10:52:05;;;;;;;7.07;5.63;;;16.80;35.10;;;;;;5043007;28;20438;-45
2021/04/17 10:54:31;;;;;;;6.67;5.83;;;16.70;35.00;;;;;;5035494;28;20439;-47
2021/04/17 10:56:58;;;;;;;7.70;6.10;;;16.70;35.00;;;;;;5035251;28;20474;-45
2021/04/17 10:59:23;;;;;;;7.23;5.90;;;16.60;34.60;;;;;;5038573;28;20203;-44
2021/04/17 11:01:49;;;;;;;6.87;5.07;;;16.40;35.10;;;;;;5035306;28;20432;-45
2021/04/17 11:04:15;;;;;;;5.57;4.73;;;16.30;34.60;;;;;;5039825;28;20604;-44
2021/04/17 11:06:46;;;;;;;5.93;5.27;;;16.30;34.60;;;;;;5036551;28;20243;-44
2021/04/17 11:09:17;;;;;;;6.23;5.47;;;16.30;34.10;;;;;;5043232;28;20834;-44
2021/04/17 11:12:03;;;;;;;5.87;5.30;;;16.40;34.00;;;;;;5045301;28;20439;-49
2021/04/17 11:14:30;;;;;;;7.07;5.50;;;16.40;34.70;;;;;;5040922;28;20472;-45
2021/04/17 11:16:56;;;;;;;6.13;5.30;;;16.30;34.10;;;;;;5041893;28;20552;-44
2021/04/17 11:19:33;;;;;;;5.30;4.73;;;16.50;34.40;;;;;;5043656;28;20475;-45
2021/04/17 11:22:24;;;;;;;6.80;6.10;;;16.50;35.30;;;;;;5043091;28;20655;-44
2021/04/17 11:24:56;;;;;;;7.60;6.17;;;16.70;35.40;;;;;;5007351;28;20773;-44
2021/04/17 11:27:22;;;;;;;5.33;4.83;;;16.80;34.60;;;;;;5040591;28;20453;-46
2021/04/17 11:29:47;;;;;;;5.83;5.20;;;16.80;34.60;;;;;;5037225;28;20520;-49
2021/04/17 11:32:13;;;;;;;7.13;6.00;;;16.90;34.20;;;;;;5043084;28;20506;-45
2021/04/17 11:34:46;;;;;;;5.50;5.00;;;16.90;34.30;;;;;;5042459;28;20200;-45
2021/04/17 11:37:13;;;;;;;7.43;5.20;;;16.70;33.70;;;;;;5040331;28;20277;-46
2021/04/17 11:39:38;;;;;;;5.40;4.90;;;16.90;34.90;;;;;;5048827;28;20439;-46
2021/04/17 11:42:04;;;;;;;4.97;4.57;;;17.20;34.20;;;;;;5037016;28;20449;-45
2021/04/17 11:44:30;;;;;;;6.83;5.90;;;17.60;33.90;;;;;;5037997;28;20192;-44
2021/04/17 11:46:59;;;;;;;6.10;5.47;;;18.00;33.40;;;;;;5039897;28;20443;-45
2021/04/17 11:49:25;;;;;;;5.40;4.90;;;18.30;34.50;;;;;;5045559;28;20185;-45
2021/04/17 11:51:51;;;;;;;4.70;4.30;;;18.30;33.10;;;;;;5023528;28;20448;-45
2021/04/17 11:54:17;;;;;;;4.80;4.40;;;18.50;32.70;;;;;;5037627;28;20451;-44
2021/04/17 11:56:42;;;;;;;5.10;3.90;;;18.60;32.30;;;;;;5026009;28;20274;-44
2021/04/17 11:59:08;;;;;;;10.00;4.53;;;18.50;31.60;;;;;;5033399;28;20245;-44
2021/04/17 12:01:34;;;;;;;5.47;5.07;;;18.60;32.40;;;;;;5036582;28;20196;-44
2021/04/17 12:04:00;;;;;;;5.10;3.57;;;18.50;32.20;;;;;;5044830;28;20564;-44
2021/04/17 12:06:29;;;;;;;5.70;4.80;;;18.20;31.00;;;;;;5044470;28;20436;-43
2021/04/17 12:08:58;;;;;;;6.10;4.30;;;18.30;31.40;;;;;;5041438;28;20311;-44
2021/04/17 12:11:25;;;;;;;5.63;4.00;;;18.60;31.20;;;;;;5039902;28;20793;-44
2021/04/17 12:13:52;;;;;;;5.80;3.80;;;18.70;31.10;;;;;;5044750;28;20481;-44
2021/04/17 12:16:18;;;;;;;4.83;3.90;;;18.70;30.40;;;;;;5036165;28;20490;-43
2021/04/17 12:18:44;;;;;;;6.10;3.33;;;18.50;29.50;;;;;;5035509;28;20468;-44
2021/04/17 12:21:10;;;;;;;3.93;3.33;;;18.70;29.50;;;;;;5036182;28;20216;-45
2021/04/17 12:23:36;;;;;;;4.07;3.67;;;18.60;29.40;;;;;;5042996;28;20419;-43
2021/04/17 12:26:02;;;;;;;3.97;3.67;;;18.60;29.20;;;;;;5033275;28;20204;-44
2021/04/17 12:28:28;;;;;;;3.47;3.17;;;18.60;29.10;;;;;;5039069;28;20577;-44
2021/04/17 12:30:57;;;;;;;4.47;3.20;;;18.40;29.40;;;;;;5026650;28;20535;-44
2021/04/17 12:33:24;;;;;;;4.07;2.97;;;18.30;29.50;;;;;;5030302;28;20661;-47
2021/04/17 12:35:50;;;;;;;4.77;3.40;;;18.50;29.30;;;;;;5040972;28;20509;-43
2021/04/17 12:38:16;;;;;;;4.47;4.07;;;18.50;28.90;;;;;;5039204;28;20443;-44
2021/04/17 12:40:42;;;;;;;3.73;3.43;;;18.50;28.80;;;;;;5033258;28;20228;-45
2021/04/17 12:43:09;;;;;;;4.40;3.40;;;18.60;29.40;;;;;;5038066;28;21760;-44
2021/04/17 12:45:38;;;;;;;3.20;2.90;;;18.50;28.70;;;;;;5040826;28;20532;-47
2021/04/17 12:48:04;;;;;;;3.30;2.97;;;18.60;29.50;;;;;;5035303;28;20436;-45